sensor_id;sensor_type;location;lat;lon;timestamp;P1;durP1;ratioP1;P2;durP2;ratioP2
72720;SDS011;60835;50.974;10.322;2022-11-15T00:00:47;6.18;;;3.03;;
72720;SDS011;60835;50.974;10.322;2022-11-15T00:03:17;17.98;;;8.98;;
72720;SDS011;60835;50.974;10.322;2022-11-15T00:05:45;4.07;;;2.92;;
72720;SDS011;60835;50.974;10.322;2022-11-15T00:08:12;21.02;;;8.93;;
72720;SDS011;60835;50.974;10.322;2022-11-15T00:10:39;8.20;;;3.83;;
72720;SDS011;60835;50.974;10.322;2022-11-15T00:13:06;8.55;;;3.70;;
72720;SDS011;60835;50.974;10.322;2022-11-15T00:15:34;4.45;;;2.72;;
72720;SDS011;60835;50.974;10.322;2022-11-15T00:18:02;7.70;;;3.17;;
72720;SDS011;60835;50.974;10.322;2022-11-15T00:20:29;11.05;;;3.47;;
72720;SDS011;60835;50.974;10.322;2022-11-15T00:22:56;6.00;;;3.25;;
72720;SDS011;60835;50.974;10.322;2022-11-15T00:25:24;6.07;;;3.25;;
72720;SDS011;60835;50.974;10.322;2022-11-15T00:27:54;8.25;;;3.58;;
72720;SDS011;60835;50.974;10.322;2022-11-15T00:30:22;7.13;;;3.38;;
72720;SDS011;60835;50.974;10.322;2022-11-15T00:32:49;4.35;;;2.78;;
72720;SDS011;60835;50.974;10.322;2022-11-15T00:35:16;6.65;;;3.05;;
72720;SDS011;60835;50.974;10.322;2022-11-15T00:37:43;6.95;;;3.30;;
72720;SDS011;60835;50.974;10.322;2022-11-15T00:40:09;5.10;;;3.08;;
72720;SDS011;60835;50.974;10.322;2022-11-15T00:42:37;5.03;;;2.80;;
72720;SDS011;60835;50.974;10.322;2022-11-15T00:45:03;4.38;;;2.90;;
72720;SDS011;60835;50.974;10.322;2022-11-15T00:47:30;6.57;;;2.90;;
72720;SDS011;60835;50.974;10.322;2022-11-15T00:49:58;4.60;;;2.70;;
72720;SDS011;60835;50.974;10.322;2022-11-15T00:52:25;5.05;;;2.83;;
72720;SDS011;60835;50.974;10.322;2022-11-15T00:54:51;5.28;;;2.72;;
72720;SDS011;60835;50.974;10.322;2022-11-15T00:57:18;4.53;;;2.63;;
72720;SDS011;60835;50.974;10.322;2022-11-15T00:59:45;8.57;;;3.20;;
72720;SDS011;60835;50.974;10.322;2022-11-15T01:02:11;5.97;;;3.13;;
72720;SDS011;60835;50.974;10.322;2022-11-15T01:04:38;5.88;;;3.08;;
72720;SDS011;60835;50.974;10.322;2022-11-15T01:07:04;8.27;;;2.65;;
72720;SDS011;60835;50.974;10.322;2022-11-15T01:09:31;6.85;;;2.78;;
72720;SDS011;60835;50.974;10.322;2022-11-15T01:11:57;7.53;;;3.50;;
72720;SDS011;60835;50.974;10.322;2022-11-15T01:14:24;6.28;;;2.63;;
72720;SDS011;60835;50.974;10.322;2022-11-15T01:16:51;7.00;;;3.03;;
72720;SDS011;60835;50.974;10.322;2022-11-15T01:19:17;9.00;;;3.45;;
72720;SDS011;60835;50.974;10.322;2022-11-15T01:21:44;5.78;;;2.80;;
72720;SDS011;60835;50.974;10.322;2022-11-15T01:24:11;7.35;;;2.72;;
72720;SDS011;60835;50.974;10.322;2022-11-15T01:26:39;5.25;;;2.97;;
72720;SDS011;60835;50.974;10.322;2022-11-15T01:29:05;6.75;;;2.63;;
72720;SDS011;60835;50.974;10.322;2022-11-15T01:31:32;7.13;;;2.92;;
72720;SDS011;60835;50.974;10.322;2022-11-15T01:33:58;6.00;;;3.08;;
72720;SDS011;60835;50.974;10.322;2022-11-15T01:36:25;6.88;;;2.83;;
72720;SDS011;60835;50.974;10.322;2022-11-15T01:38:55;9.82;;;3.15;;
72720;SDS011;60835;50.974;10.322;2022-11-15T01:41:24;5.32;;;2.72;;
72720;SDS011;60835;50.974;10.322;2022-11-15T01:43:56;8.23;;;3.00;;
72720;SDS011;60835;50.974;10.322;2022-11-15T01:46:42;5.88;;;3.03;;
72720;SDS011;60835;50.974;10.322;2022-11-15T01:49:14;6.70;;;3.05;;
72720;SDS011;60835;50.974;10.322;2022-11-15T01:51:45;6.43;;;3.05;;
72720;SDS011;60835;50.974;10.322;2022-11-15T01:54:14;5.43;;;3.03;;
72720;SDS011;60835;50.974;10.322;2022-11-15T01:56:51;8.10;;;2.97;;
72720;SDS011;60835;50.974;10.322;2022-11-15T01:59:22;7.32;;;3.00;;
72720;SDS011;60835;50.974;10.322;2022-11-15T02:01:49;7.05;;;3.28;;
72720;SDS011;60835;50.974;10.322;2022-11-15T02:04:17;5.32;;;3.03;;
72720;SDS011;60835;50.974;10.322;2022-11-15T02:06:44;9.75;;;2.55;;
72720;SDS011;60835;50.974;10.322;2022-11-15T02:09:13;8.57;;;3.00;;
72720;SDS011;60835;50.974;10.322;2022-11-15T02:11:40;4.90;;;3.17;;
72720;SDS011;60835;50.974;10.322;2022-11-15T02:14:07;6.00;;;3.22;;
72720;SDS011;60835;50.974;10.322;2022-11-15T02:16:40;5.13;;;3.10;;
72720;SDS011;60835;50.974;10.322;2022-11-15T02:28:06;6.63;;;2.95;;
72720;SDS011;60835;50.974;10.322;2022-11-15T02:30:46;6.00;;;3.08;;
72720;SDS011;60835;50.974;10.322;2022-11-15T02:33:29;7.97;;;3.25;;
72720;SDS011;60835;50.974;10.322;2022-11-15T02:39:02;6.18;;;2.92;;
72720;SDS011;60835;50.974;10.322;2022-11-15T02:41:39;8.95;;;3.10;;
72720;SDS011;60835;50.974;10.322;2022-11-15T02:44:16;5.45;;;3.72;;
72720;SDS011;60835;50.974;10.322;2022-11-15T02:46:52;7.22;;;2.88;;
72720;SDS011;60835;50.974;10.322;2022-11-15T02:49:41;6.75;;;3.30;;
72720;SDS011;60835;50.974;10.322;2022-11-15T02:52:16;4.38;;;2.95;;
72720;SDS011;60835;50.974;10.322;2022-11-15T02:54:57;4.20;;;2.65;;
72720;SDS011;60835;50.974;10.322;2022-11-15T03:00:12;6.17;;;2.60;;
72720;SDS011;60835;50.974;10.322;2022-11-15T03:08:32;5.05;;;2.97;;
72720;SDS011;60835;50.974;10.322;2022-11-15T03:11:09;5.20;;;3.10;;
72720;SDS011;60835;50.974;10.322;2022-11-15T03:16:40;6.18;;;2.95;;
72720;SDS011;60835;50.974;10.322;2022-11-15T03:22:04;5.70;;;3.15;;
72720;SDS011;60835;50.974;10.322;2022-11-15T03:24:36;5.88;;;3.38;;
72720;SDS011;60835;50.974;10.322;2022-11-15T03:27:05;10.00;;;4.40;;
72720;SDS011;60835;50.974;10.322;2022-11-15T03:29:35;4.55;;;3.35;;
72720;SDS011;60835;50.974;10.322;2022-11-15T03:32:12;5.47;;;3.00;;
72720;SDS011;60835;50.974;10.322;2022-11-15T03:37:28;7.43;;;3.45;;
72720;SDS011;60835;50.974;10.322;2022-11-15T03:40:01;12.20;;;3.35;;
72720;SDS011;60835;50.974;10.322;2022-11-15T03:45:13;6.65;;;3.40;;
72720;SDS011;60835;50.974;10.322;2022-11-15T03:47:49;9.85;;;3.53;;
72720;SDS011;60835;50.974;10.322;2022-11-15T03:50:20;6.18;;;3.15;;
72720;SDS011;60835;50.974;10.322;2022-11-15T03:52:48;8.77;;;4.10;;
72720;SDS011;60835;50.974;10.322;2022-11-15T03:55:19;5.05;;;3.00;;
72720;SDS011;60835;50.974;10.322;2022-11-15T03:57:48;7.10;;;3.05;;
72720;SDS011;60835;50.974;10.322;2022-11-15T04:00:19;4.32;;;2.85;;
72720;SDS011;60835;50.974;10.322;2022-11-15T04:02:46;7.68;;;3.40;;
72720;SDS011;60835;50.974;10.322;2022-11-15T04:05:13;6.60;;;2.95;;
72720;SDS011;60835;50.974;10.322;2022-11-15T04:07:39;6.78;;;3.50;;
72720;SDS011;60835;50.974;10.322;2022-11-15T04:10:07;7.97;;;3.13;;
72720;SDS011;60835;50.974;10.322;2022-11-15T04:12:36;5.75;;;2.97;;
72720;SDS011;60835;50.974;10.322;2022-11-15T04:17:40;3.90;;;2.67;;
72720;SDS011;60835;50.974;10.322;2022-11-15T04:20:17;6.40;;;3.35;;
72720;SDS011;60835;50.974;10.322;2022-11-15T04:23:05;6.78;;;3.40;;
72720;SDS011;60835;50.974;10.322;2022-11-15T04:25:55;6.60;;;3.20;;
72720;SDS011;60835;50.974;10.322;2022-11-15T04:28:24;12.23;;;3.97;;
72720;SDS011;60835;50.974;10.322;2022-11-15T04:30:51;8.63;;;3.00;;
72720;SDS011;60835;50.974;10.322;2022-11-15T04:33:18;4.55;;;3.00;;
72720;SDS011;60835;50.974;10.322;2022-11-15T04:35:44;8.57;;;4.03;;
72720;SDS011;60835;50.974;10.322;2022-11-15T04:38:30;4.78;;;3.10;;
72720;SDS011;60835;50.974;10.322;2022-11-15T04:40:57;4.38;;;3.17;;
72720;SDS011;60835;50.974;10.322;2022-11-15T04:43:23;6.65;;;3.58;;
72720;SDS011;60835;50.974;10.322;2022-11-15T04:45:50;7.50;;;3.60;;
72720;SDS011;60835;50.974;10.322;2022-11-15T04:48:16;9.02;;;3.83;;
72720;SDS011;60835;50.974;10.322;2022-11-15T04:50:43;11.85;;;4.68;;
72720;SDS011;60835;50.974;10.322;2022-11-15T04:53:09;9.25;;;4.05;;
72720;SDS011;60835;50.974;10.322;2022-11-15T04:55:36;8.80;;;3.92;;
72720;SDS011;60835;50.974;10.322;2022-11-15T04:58:02;10.95;;;3.95;;
72720;SDS011;60835;50.974;10.322;2022-11-15T05:00:29;5.43;;;3.67;;
72720;SDS011;60835;50.974;10.322;2022-11-15T05:02:56;8.52;;;3.53;;
72720;SDS011;60835;50.974;10.322;2022-11-15T05:05:42;7.63;;;4.03;;
72720;SDS011;60835;50.974;10.322;2022-11-15T05:08:08;6.00;;;3.38;;
72720;SDS011;60835;50.974;10.322;2022-11-15T05:10:35;9.05;;;3.80;;
72720;SDS011;60835;50.974;10.322;2022-11-15T05:13:01;15.40;;;4.35;;
72720;SDS011;60835;50.974;10.322;2022-11-15T05:15:27;9.05;;;3.75;;
72720;SDS011;60835;50.974;10.322;2022-11-15T05:17:58;7.53;;;3.65;;
72720;SDS011;60835;50.974;10.322;2022-11-15T05:20:26;4.88;;;3.13;;
72720;SDS011;60835;50.974;10.322;2022-11-15T05:22:53;8.63;;;3.13;;
72720;SDS011;60835;50.974;10.322;2022-11-15T05:25:21;6.30;;;3.33;;
72720;SDS011;60835;50.974;10.322;2022-11-15T05:27:48;8.95;;;3.65;;
72720;SDS011;60835;50.974;10.322;2022-11-15T05:30:15;7.53;;;3.22;;
72720;SDS011;60835;50.974;10.322;2022-11-15T05:32:43;6.82;;;3.80;;
72720;SDS011;60835;50.974;10.322;2022-11-15T05:35:12;5.82;;;3.30;;
72720;SDS011;60835;50.974;10.322;2022-11-15T05:37:45;8.70;;;3.72;;
72720;SDS011;60835;50.974;10.322;2022-11-15T05:40:11;6.25;;;3.42;;
72720;SDS011;60835;50.974;10.322;2022-11-15T05:42:38;7.10;;;3.95;;
72720;SDS011;60835;50.974;10.322;2022-11-15T05:45:05;9.68;;;3.92;;
72720;SDS011;60835;50.974;10.322;2022-11-15T05:47:34;5.32;;;3.55;;
72720;SDS011;60835;50.974;10.322;2022-11-15T05:50:03;8.95;;;3.22;;
72720;SDS011;60835;50.974;10.322;2022-11-15T05:52:30;6.63;;;3.25;;
72720;SDS011;60835;50.974;10.322;2022-11-15T05:55:00;10.65;;;3.60;;
72720;SDS011;60835;50.974;10.322;2022-11-15T05:57:29;6.18;;;2.97;;
72720;SDS011;60835;50.974;10.322;2022-11-15T05:59:55;5.55;;;3.03;;
72720;SDS011;60835;50.974;10.322;2022-11-15T06:02:22;9.35;;;3.30;;
72720;SDS011;60835;50.974;10.322;2022-11-15T06:04:48;5.97;;;3.78;;
72720;SDS011;60835;50.974;10.322;2022-11-15T06:07:15;7.75;;;3.92;;
72720;SDS011;60835;50.974;10.322;2022-11-15T06:09:41;8.15;;;3.42;;
72720;SDS011;60835;50.974;10.322;2022-11-15T06:12:08;11.95;;;7.88;;
72720;SDS011;60835;50.974;10.322;2022-11-15T06:14:34;7.78;;;4.55;;
72720;SDS011;60835;50.974;10.322;2022-11-15T06:17:00;9.00;;;3.78;;
72720;SDS011;60835;50.974;10.322;2022-11-15T06:19:33;7.45;;;3.72;;
72720;SDS011;60835;50.974;10.322;2022-11-15T06:22:00;6.88;;;3.95;;
72720;SDS011;60835;50.974;10.322;2022-11-15T06:24:26;5.70;;;3.45;;
72720;SDS011;60835;50.974;10.322;2022-11-15T06:26:53;4.50;;;3.60;;
72720;SDS011;60835;50.974;10.322;2022-11-15T06:29:20;8.57;;;3.63;;
72720;SDS011;60835;50.974;10.322;2022-11-15T06:31:46;10.27;;;3.80;;
72720;SDS011;60835;50.974;10.322;2022-11-15T06:34:13;7.70;;;3.95;;
72720;SDS011;60835;50.974;10.322;2022-11-15T06:36:39;7.05;;;3.42;;
72720;SDS011;60835;50.974;10.322;2022-11-15T06:39:05;7.00;;;3.88;;
72720;SDS011;60835;50.974;10.322;2022-11-15T06:41:35;6.70;;;3.10;;
72720;SDS011;60835;50.974;10.322;2022-11-15T06:44:02;8.60;;;3.20;;
72720;SDS011;60835;50.974;10.322;2022-11-15T06:46:29;6.95;;;3.17;;
72720;SDS011;60835;50.974;10.322;2022-11-15T06:48:55;10.40;;;3.30;;
72720;SDS011;60835;50.974;10.322;2022-11-15T06:51:22;12.60;;;3.25;;
72720;SDS011;60835;50.974;10.322;2022-11-15T06:53:48;5.32;;;3.00;;
72720;SDS011;60835;50.974;10.322;2022-11-15T06:56:14;7.20;;;3.97;;
72720;SDS011;60835;50.974;10.322;2022-11-15T06:58:41;6.10;;;3.33;;
72720;SDS011;60835;50.974;10.322;2022-11-15T07:01:09;7.38;;;3.30;;
72720;SDS011;60835;50.974;10.322;2022-11-15T07:03:37;10.65;;;3.95;;
72720;SDS011;60835;50.974;10.322;2022-11-15T07:06:05;7.65;;;4.22;;
72720;SDS011;60835;50.974;10.322;2022-11-15T07:08:33;6.93;;;4.28;;
72720;SDS011;60835;50.974;10.322;2022-11-15T07:11:01;10.68;;;3.53;;
72720;SDS011;60835;50.974;10.322;2022-11-15T07:13:30;8.82;;;3.75;;
72720;SDS011;60835;50.974;10.322;2022-11-15T07:16:02;7.75;;;3.28;;
72720;SDS011;60835;50.974;10.322;2022-11-15T07:18:34;9.48;;;3.58;;
72720;SDS011;60835;50.974;10.322;2022-11-15T07:21:02;6.82;;;3.70;;
72720;SDS011;60835;50.974;10.322;2022-11-15T07:23:30;6.05;;;3.20;;
72720;SDS011;60835;50.974;10.322;2022-11-15T07:25:57;19.98;;;4.45;;
72720;SDS011;60835;50.974;10.322;2022-11-15T07:28:28;11.85;;;4.55;;
72720;SDS011;60835;50.974;10.322;2022-11-15T07:30:54;11.70;;;5.95;;
72720;SDS011;60835;50.974;10.322;2022-11-15T07:33:21;15.10;;;4.78;;
72720;SDS011;60835;50.974;10.322;2022-11-15T07:35:47;7.97;;;3.97;;
72720;SDS011;60835;50.974;10.322;2022-11-15T07:38:14;9.48;;;4.30;;
72720;SDS011;60835;50.974;10.322;2022-11-15T07:40:41;7.95;;;3.85;;
72720;SDS011;60835;50.974;10.322;2022-11-15T07:43:08;6.28;;;4.57;;
72720;SDS011;60835;50.974;10.322;2022-11-15T07:45:39;13.18;;;5.40;;
72720;SDS011;60835;50.974;10.322;2022-11-15T07:48:09;7.63;;;4.80;;
72720;SDS011;60835;50.974;10.322;2022-11-15T07:50:36;9.35;;;4.25;;
72720;SDS011;60835;50.974;10.322;2022-11-15T07:53:07;10.02;;;3.80;;
72720;SDS011;60835;50.974;10.322;2022-11-15T07:55:35;9.27;;;4.45;;
72720;SDS011;60835;50.974;10.322;2022-11-15T08:00:28;9.25;;;5.03;;
72720;SDS011;60835;50.974;10.322;2022-11-15T08:03:05;8.05;;;4.25;;
72720;SDS011;60835;50.974;10.322;2022-11-15T08:05:36;8.85;;;3.90;;
72720;SDS011;60835;50.974;10.322;2022-11-15T08:08:04;7.97;;;3.35;;
72720;SDS011;60835;50.974;10.322;2022-11-15T08:10:31;5.90;;;3.60;;
72720;SDS011;60835;50.974;10.322;2022-11-15T08:13:06;3.45;;;2.60;;
72720;SDS011;60835;50.974;10.322;2022-11-15T08:15:35;7.00;;;4.15;;
72720;SDS011;60835;50.974;10.322;2022-11-15T08:18:05;8.73;;;5.13;;
72720;SDS011;60835;50.974;10.322;2022-11-15T08:20:33;18.67;;;7.30;;
72720;SDS011;60835;50.974;10.322;2022-11-15T08:23:01;14.90;;;6.85;;
72720;SDS011;60835;50.974;10.322;2022-11-15T08:25:30;19.55;;;7.95;;
72720;SDS011;60835;50.974;10.322;2022-11-15T08:27:59;8.07;;;3.67;;
72720;SDS011;60835;50.974;10.322;2022-11-15T08:30:27;6.90;;;3.00;;
72720;SDS011;60835;50.974;10.322;2022-11-15T08:32:56;26.25;;;10.43;;
72720;SDS011;60835;50.974;10.322;2022-11-15T08:35:24;20.23;;;9.13;;
72720;SDS011;60835;50.974;10.322;2022-11-15T08:37:54;24.35;;;10.75;;
72720;SDS011;60835;50.974;10.322;2022-11-15T08:40:20;60.33;;;22.60;;
72720;SDS011;60835;50.974;10.322;2022-11-15T08:42:47;16.98;;;7.90;;
72720;SDS011;60835;50.974;10.322;2022-11-15T08:45:14;20.67;;;8.95;;
72720;SDS011;60835;50.974;10.322;2022-11-15T08:47:41;9.65;;;4.40;;
72720;SDS011;60835;50.974;10.322;2022-11-15T08:50:07;9.25;;;4.30;;
72720;SDS011;60835;50.974;10.322;2022-11-15T08:52:34;7.43;;;3.50;;
72720;SDS011;60835;50.974;10.322;2022-11-15T08:55:00;8.05;;;3.95;;
72720;SDS011;60835;50.974;10.322;2022-11-15T08:57:30;10.38;;;5.15;;
72720;SDS011;60835;50.974;10.322;2022-11-15T08:59:57;24.45;;;9.50;;
72720;SDS011;60835;50.974;10.322;2022-11-15T09:02:23;9.93;;;4.18;;
72720;SDS011;60835;50.974;10.322;2022-11-15T09:04:50;7.85;;;3.25;;
72720;SDS011;60835;50.974;10.322;2022-11-15T09:07:17;14.45;;;5.50;;
72720;SDS011;60835;50.974;10.322;2022-11-15T09:09:43;32.03;;;12.13;;
72720;SDS011;60835;50.974;10.322;2022-11-15T09:12:10;11.68;;;4.60;;
72720;SDS011;60835;50.974;10.322;2022-11-15T09:14:36;14.43;;;5.85;;
72720;SDS011;60835;50.974;10.322;2022-11-15T09:17:03;21.55;;;7.43;;
72720;SDS011;60835;50.974;10.322;2022-11-15T09:19:30;10.00;;;3.60;;
72720;SDS011;60835;50.974;10.322;2022-11-15T09:21:56;8.25;;;3.88;;
72720;SDS011;60835;50.974;10.322;2022-11-15T09:24:22;11.40;;;5.03;;
72720;SDS011;60835;50.974;10.322;2022-11-15T09:26:50;12.23;;;6.57;;
72720;SDS011;60835;50.974;10.322;2022-11-15T09:29:17;16.42;;;8.18;;
72720;SDS011;60835;50.974;10.322;2022-11-15T09:31:44;12.98;;;6.88;;
72720;SDS011;60835;50.974;10.322;2022-11-15T09:34:11;10.23;;;5.10;;
72720;SDS011;60835;50.974;10.322;2022-11-15T09:36:37;13.25;;;6.18;;
72720;SDS011;60835;50.974;10.322;2022-11-15T09:39:04;13.05;;;4.70;;
72720;SDS011;60835;50.974;10.322;2022-11-15T09:41:37;8.20;;;3.90;;
72720;SDS011;60835;50.974;10.322;2022-11-15T09:49:43;5.00;;;2.42;;
72720;SDS011;60835;50.974;10.322;2022-11-15T09:52:10;5.00;;;2.42;;
72720;SDS011;60835;50.974;10.322;2022-11-15T09:54:38;4.45;;;2.45;;
72720;SDS011;60835;50.974;10.322;2022-11-15T10:00:18;5.30;;;2.60;;
72720;SDS011;60835;50.974;10.322;2022-11-15T10:05:44;4.33;;;2.87;;
72720;SDS011;60835;50.974;10.322;2022-11-15T10:11:02;3.53;;;2.33;;
72720;SDS011;60835;50.974;10.322;2022-11-15T10:13:54;3.60;;;2.55;;
72720;SDS011;60835;50.974;10.322;2022-11-15T10:19:15;4.03;;;2.92;;
72720;SDS011;60835;50.974;10.322;2022-11-15T10:27:34;2.80;;;2.33;;
72720;SDS011;60835;50.974;10.322;2022-11-15T10:30:00;5.50;;;2.38;;
72720;SDS011;60835;50.974;10.322;2022-11-15T10:32:29;5.05;;;2.53;;
72720;SDS011;60835;50.974;10.322;2022-11-15T10:34:58;5.32;;;2.30;;
72720;SDS011;60835;50.974;10.322;2022-11-15T10:37:29;3.80;;;2.42;;
72720;SDS011;60835;50.974;10.322;2022-11-15T10:40:04;4.95;;;2.40;;
72720;SDS011;60835;50.974;10.322;2022-11-15T10:45:52;4.35;;;2.33;;
72720;SDS011;60835;50.974;10.322;2022-11-15T10:50:45;6.18;;;2.75;;
72720;SDS011;60835;50.974;10.322;2022-11-15T10:53:19;7.70;;;2.53;;
72720;SDS011;60835;50.974;10.322;2022-11-15T10:55:53;3.17;;;2.38;;
72720;SDS011;60835;50.974;10.322;2022-11-15T10:58:30;5.97;;;2.83;;
72720;SDS011;60835;50.974;10.322;2022-11-15T11:01:16;4.88;;;2.53;;
72720;SDS011;60835;50.974;10.322;2022-11-15T11:03:46;5.78;;;3.03;;
72720;SDS011;60835;50.974;10.322;2022-11-15T11:06:27;3.72;;;2.03;;
72720;SDS011;60835;50.974;10.322;2022-11-15T11:11:25;6.68;;;2.50;;
72720;SDS011;60835;50.974;10.322;2022-11-15T11:14:44;3.58;;;2.10;;
72720;SDS011;60835;50.974;10.322;2022-11-15T11:19:56;4.30;;;2.60;;
72720;SDS011;60835;50.974;10.322;2022-11-15T11:44:49;3.58;;;2.03;;
72720;SDS011;60835;50.974;10.322;2022-11-15T11:47:36;4.85;;;2.20;;
72720;SDS011;60835;50.974;10.322;2022-11-15T11:50:17;5.70;;;3.03;;
72720;SDS011;60835;50.974;10.322;2022-11-15T11:55:33;3.97;;;2.30;;
72720;SDS011;60835;50.974;10.322;2022-11-15T11:58:12;4.77;;;2.20;;
72720;SDS011;60835;50.974;10.322;2022-11-15T12:00:46;4.75;;;2.25;;
72720;SDS011;60835;50.974;10.322;2022-11-15T12:03:29;3.42;;;2.13;;
72720;SDS011;60835;50.974;10.322;2022-11-15T12:06:09;5.68;;;2.47;;
72720;SDS011;60835;50.974;10.322;2022-11-15T12:08:51;4.18;;;2.42;;
72720;SDS011;60835;50.974;10.322;2022-11-15T12:11:30;4.50;;;2.22;;
72720;SDS011;60835;50.974;10.322;2022-11-15T12:14:08;3.22;;;2.22;;
72720;SDS011;60835;50.974;10.322;2022-11-15T12:16:43;3.38;;;2.13;;
72720;SDS011;60835;50.974;10.322;2022-11-15T12:19:10;3.80;;;2.28;;
72720;SDS011;60835;50.974;10.322;2022-11-15T12:30:14;5.32;;;2.63;;
72720;SDS011;60835;50.974;10.322;2022-11-15T12:32:50;3.45;;;2.42;;
72720;SDS011;60835;50.974;10.322;2022-11-15T12:35:31;3.58;;;2.17;;
72720;SDS011;60835;50.974;10.322;2022-11-15T12:38:01;2.58;;;2.22;;
72720;SDS011;60835;50.974;10.322;2022-11-15T12:40:29;3.03;;;2.30;;
72720;SDS011;60835;50.974;10.322;2022-11-15T12:46:06;7.28;;;2.28;;
72720;SDS011;60835;50.974;10.322;2022-11-15T12:51:05;6.63;;;2.08;;
72720;SDS011;60835;50.974;10.322;2022-11-15T12:53:32;4.72;;;1.80;;
72720;SDS011;60835;50.974;10.322;2022-11-15T12:58:43;5.45;;;2.50;;
72720;SDS011;60835;50.974;10.322;2022-11-15T13:04:08;3.15;;;2.25;;
72720;SDS011;60835;50.974;10.322;2022-11-15T13:11:58;4.88;;;2.67;;
72720;SDS011;60835;50.974;10.322;2022-11-15T13:17:11;3.70;;;2.20;;
72720;SDS011;60835;50.974;10.322;2022-11-15T13:19:45;4.80;;;2.70;;
72720;SDS011;60835;50.974;10.322;2022-11-15T13:22:12;3.42;;;2.00;;
72720;SDS011;60835;50.974;10.322;2022-11-15T13:24:58;7.03;;;2.25;;
72720;SDS011;60835;50.974;10.322;2022-11-15T13:27:27;8.80;;;2.47;;
72720;SDS011;60835;50.974;10.322;2022-11-15T13:29:54;4.50;;;2.20;;
72720;SDS011;60835;50.974;10.322;2022-11-15T13:32:21;4.07;;;2.55;;
72720;SDS011;60835;50.974;10.322;2022-11-15T13:34:49;3.65;;;2.17;;
72720;SDS011;60835;50.974;10.322;2022-11-15T13:39:48;9.27;;;4.22;;
72720;SDS011;60835;50.974;10.322;2022-11-15T13:42:16;4.57;;;2.60;;
72720;SDS011;60835;50.974;10.322;2022-11-15T13:44:54;3.55;;;2.33;;
72720;SDS011;60835;50.974;10.322;2022-11-15T13:47:24;9.57;;;2.63;;
72720;SDS011;60835;50.974;10.322;2022-11-15T13:49:53;6.32;;;2.67;;
72720;SDS011;60835;50.974;10.322;2022-11-15T13:52:22;5.85;;;2.72;;
72720;SDS011;60835;50.974;10.322;2022-11-15T13:55:01;4.45;;;2.58;;
72720;SDS011;60835;50.974;10.322;2022-11-15T13:57:36;4.00;;;2.08;;
72720;SDS011;60835;50.974;10.322;2022-11-15T14:00:57;6.82;;;2.90;;
72720;SDS011;60835;50.974;10.322;2022-11-15T14:03:08;4.78;;;2.83;;
72720;SDS011;60835;50.974;10.322;2022-11-15T14:05:44;2.90;;;2.22;;
72720;SDS011;60835;50.974;10.322;2022-11-15T14:08:28;3.97;;;2.50;;
72720;SDS011;60835;50.974;10.322;2022-11-15T14:11:15;4.32;;;2.60;;
72720;SDS011;60835;50.974;10.322;2022-11-15T14:13:59;8.20;;;2.90;;
72720;SDS011;60835;50.974;10.322;2022-11-15T14:16:37;6.05;;;3.30;;
72720;SDS011;60835;50.974;10.322;2022-11-15T14:19:05;6.82;;;3.30;;
72720;SDS011;60835;50.974;10.322;2022-11-15T14:21:33;6.90;;;2.92;;
72720;SDS011;60835;50.974;10.322;2022-11-15T14:24:15;7.55;;;2.80;;
72720;SDS011;60835;50.974;10.322;2022-11-15T14:26:46;5.20;;;2.85;;
72720;SDS011;60835;50.974;10.322;2022-11-15T14:29:26;9.00;;;2.97;;
72720;SDS011;60835;50.974;10.322;2022-11-15T14:34:54;6.32;;;3.22;;
72720;SDS011;60835;50.974;10.322;2022-11-15T14:37:27;10.67;;;4.33;;
72720;SDS011;60835;50.974;10.322;2022-11-15T14:39:57;8.50;;;4.20;;
72720;SDS011;60835;50.974;10.322;2022-11-15T14:42:24;12.10;;;3.80;;
72720;SDS011;60835;50.974;10.322;2022-11-15T14:44:51;10.82;;;3.22;;
72720;SDS011;60835;50.974;10.322;2022-11-15T14:47:18;15.43;;;4.85;;
72720;SDS011;60835;50.974;10.322;2022-11-15T14:49:45;9.07;;;3.88;;
72720;SDS011;60835;50.974;10.322;2022-11-15T14:52:30;8.32;;;3.60;;
72720;SDS011;60835;50.974;10.322;2022-11-15T14:55:00;11.40;;;4.22;;
72720;SDS011;60835;50.974;10.322;2022-11-15T14:57:29;9.48;;;3.78;;
72720;SDS011;60835;50.974;10.322;2022-11-15T14:59:56;10.00;;;4.70;;
72720;SDS011;60835;50.974;10.322;2022-11-15T15:02:23;10.23;;;3.83;;
72720;SDS011;60835;50.974;10.322;2022-11-15T15:04:51;8.50;;;3.92;;
72720;SDS011;60835;50.974;10.322;2022-11-15T15:07:18;12.55;;;4.97;;
72720;SDS011;60835;50.974;10.322;2022-11-15T15:09:45;10.40;;;4.45;;
72720;SDS011;60835;50.974;10.322;2022-11-15T15:12:19;6.85;;;4.03;;
72720;SDS011;60835;50.974;10.322;2022-11-15T15:14:49;8.43;;;4.38;;
72720;SDS011;60835;50.974;10.322;2022-11-15T15:17:16;10.75;;;5.40;;
72720;SDS011;60835;50.974;10.322;2022-11-15T15:19:43;12.18;;;6.88;;
72720;SDS011;60835;50.974;10.322;2022-11-15T15:22:13;11.05;;;5.90;;
72720;SDS011;60835;50.974;10.322;2022-11-15T15:24:43;14.48;;;6.18;;
72720;SDS011;60835;50.974;10.322;2022-11-15T15:27:10;19.02;;;5.13;;
72720;SDS011;60835;50.974;10.322;2022-11-15T15:29:37;14.63;;;5.03;;
72720;SDS011;60835;50.974;10.322;2022-11-15T15:32:05;16.42;;;6.65;;
72720;SDS011;60835;50.974;10.322;2022-11-15T15:34:32;13.50;;;6.50;;
72720;SDS011;60835;50.974;10.322;2022-11-15T15:39:54;10.40;;;3.65;;
72720;SDS011;60835;50.974;10.322;2022-11-15T15:42:22;14.02;;;4.05;;
72720;SDS011;60835;50.974;10.322;2022-11-15T15:44:49;11.27;;;3.90;;
72720;SDS011;60835;50.974;10.322;2022-11-15T15:47:18;10.35;;;4.32;;
72720;SDS011;60835;50.974;10.322;2022-11-15T15:49:46;8.32;;;4.18;;
72720;SDS011;60835;50.974;10.322;2022-11-15T15:52:14;8.93;;;4.28;;
72720;SDS011;60835;50.974;10.322;2022-11-15T15:54:40;8.85;;;3.78;;
72720;SDS011;60835;50.974;10.322;2022-11-15T15:57:07;9.18;;;4.05;;
72720;SDS011;60835;50.974;10.322;2022-11-15T15:59:37;16.10;;;5.63;;
72720;SDS011;60835;50.974;10.322;2022-11-15T16:02:04;10.93;;;5.30;;
72720;SDS011;60835;50.974;10.322;2022-11-15T16:04:30;11.60;;;5.40;;
72720;SDS011;60835;50.974;10.322;2022-11-15T16:07:00;15.20;;;6.07;;
72720;SDS011;60835;50.974;10.322;2022-11-15T16:09:27;13.43;;;4.90;;
72720;SDS011;60835;50.974;10.322;2022-11-15T16:12:12;12.27;;;5.00;;
72720;SDS011;60835;50.974;10.322;2022-11-15T16:14:38;13.15;;;4.93;;
72720;SDS011;60835;50.974;10.322;2022-11-15T16:17:05;10.35;;;4.95;;
72720;SDS011;60835;50.974;10.322;2022-11-15T16:19:34;13.85;;;5.20;;
72720;SDS011;60835;50.974;10.322;2022-11-15T16:22:01;12.27;;;5.30;;
72720;SDS011;60835;50.974;10.322;2022-11-15T16:24:28;10.27;;;5.72;;
72720;SDS011;60835;50.974;10.322;2022-11-15T16:26:54;11.02;;;5.00;;
72720;SDS011;60835;50.974;10.322;2022-11-15T16:29:21;14.15;;;4.80;;
72720;SDS011;60835;50.974;10.322;2022-11-15T16:31:48;15.88;;;5.40;;
72720;SDS011;60835;50.974;10.322;2022-11-15T16:34:15;15.90;;;6.97;;
72720;SDS011;60835;50.974;10.322;2022-11-15T16:36:42;16.90;;;8.07;;
72720;SDS011;60835;50.974;10.322;2022-11-15T16:39:11;20.52;;;7.35;;
72720;SDS011;60835;50.974;10.322;2022-11-15T16:41:44;17.42;;;7.18;;
72720;SDS011;60835;50.974;10.322;2022-11-15T16:44:14;12.88;;;7.05;;
72720;SDS011;60835;50.974;10.322;2022-11-15T16:46:43;16.17;;;7.97;;
72720;SDS011;60835;50.974;10.322;2022-11-15T16:49:17;17.98;;;9.73;;
72720;SDS011;60835;50.974;10.322;2022-11-15T16:51:45;19.52;;;9.45;;
72720;SDS011;60835;50.974;10.322;2022-11-15T16:54:13;18.05;;;9.55;;
72720;SDS011;60835;50.974;10.322;2022-11-15T16:56:40;15.05;;;7.40;;
72720;SDS011;60835;50.974;10.322;2022-11-15T16:59:08;16.83;;;7.38;;